Time;durP1;ratioP1;P1;durP2;ratioP2;P2;SDS_P1;SDS_P2;PMS_P1;PMS_P2;Temp;Humidity;BMP_temperature;BMP_pressure;BME280_temperature;BME280_humidity;BME280_pressure;Samples;Min_cycle;Max_cycle;Signal;HPM_P1;HPM_P2
2022/07/06 00:00:31;;;;;;;5.03;1.80;;;;;;;18.45;42.22;100627.41;10449214;28;20083;-64
2022/07/06 00:05:32;;;;;;;3.28;1.60;;;;;;;18.25;42.70;100621.09;10467292;28;20565;-64
2022/07/06 00:10:34;;;;;;;4.63;1.85;;;;;;;18.12;42.51;100619.50;10465723;28;20139;-64
2022/07/06 00:15:36;;;;;;;3.50;1.60;;;;;;;17.99;42.60;100619.66;10467140;28;20168;-64
2022/07/06 00:20:38;;;;;;;7.75;1.80;;;;;;;17.91;42.71;100623.88;10466222;28;20186;-63
2022/07/06 00:25:39;;;;;;;7.18;1.90;;;;;;;17.83;43.29;100619.19;10467403;28;20508;-63
2022/07/06 00:30:42;;;;;;;4.25;1.80;;;;;;;17.65;43.28;100621.47;10464419;28;20544;-64
2022/07/06 00:35:43;;;;;;;6.68;1.77;;;;;;;17.66;43.48;100619.66;10464633;28;20048;-63
2022/07/06 00:40:45;;;;;;;5.82;1.63;;;;;;;17.56;43.27;100622.19;10467502;28;20148;-64
2022/07/06 00:45:47;;;;;;;3.58;1.45;;;;;;;17.50;43.80;100622.69;10467608;28;20492;-64
2022/07/06 00:50:49;;;;;;;8.23;1.60;;;;;;;17.49;43.91;100622.78;10466471;28;20102;-63
2022/07/06 00:55:51;;;;;;;4.63;1.80;;;;;;;17.39;44.43;100627.94;10466034;28;20036;-63
2022/07/06 01:00:52;;;;;;;4.38;1.70;;;;;;;17.30;44.34;100623.31;10466616;28;20136;-63
2022/07/06 01:05:54;;;;;;;4.53;1.70;;;;;;;17.19;44.93;100628.59;10446688;28;20052;-64
2022/07/06 01:10:56;;;;;;;6.40;1.70;;;;;;;17.08;45.42;100628.53;10466999;28;20056;-65
2022/07/06 01:15:59;;;;;;;4.80;1.63;;;;;;;17.07;46.10;100633.97;10466408;28;20151;-64
2022/07/06 01:21:08;;;;;;;6.75;2.20;;;;;;;16.88;45.93;100637.13;10465525;28;20512;-63
2022/07/06 01:26:13;;;;;;;7.22;1.80;;;;;;;16.77;46.68;100623.91;10465066;28;20054;-63
2022/07/06 01:31:20;;;;;;;5.18;2.00;;;;;;;16.74;47.33;100632.88;10464439;28;20129;-64
2022/07/06 01:36:23;;;;;;;7.75;2.20;;;;;;;16.77;47.34;100629.19;10465450;28;20563;-63
2022/07/06 01:41:25;;;;;;;7.25;2.00;;;;;;;16.70;46.65;100623.50;10448546;28;20135;-63
2022/07/06 01:46:27;;;;;;;7.47;2.40;;;;;;;16.64;46.82;100621.31;10466316;28;20095;-63
2022/07/06 01:51:28;;;;;;;6.97;1.80;;;;;;;16.48;47.87;100620.75;10464843;28;20122;-64
2022/07/06 01:56:30;;;;;;;7.75;2.10;;;;;;;16.54;47.54;100624.75;10447921;28;20509;-64
2022/07/06 02:01:32;;;;;;;7.22;2.15;;;;;;;16.50;48.12;100624.13;10466695;28;20127;-64
2022/07/06 02:06:34;;;;;;;6.80;2.08;;;;;;;16.40;48.08;100624.88;10470820;28;20048;-63
2022/07/06 02:11:35;;;;;;;5.40;2.33;;;;;;;16.27;48.13;100626.72;10457020;28;20159;-63
2022/07/06 02:16:37;;;;;;;7.28;2.50;;;;;;;16.18;48.77;100626.41;10480852;28;20076;-64
2022/07/06 02:21:39;;;;;;;6.03;2.40;;;;;;;16.16;48.84;100641.53;10479709;28;20051;-64
2022/07/06 02:26:44;;;;;;;7.38;2.30;;;;;;;16.20;48.73;100637.72;10480884;28;20690;-63
2022/07/06 02:31:45;;;;;;;7.40;2.38;;;;;;;16.12;48.40;100633.97;10479478;28;20455;-64
2022/07/06 02:36:47;;;;;;;7.22;2.28;;;;;;;15.98;49.07;100640.19;10477889;28;20090;-64
2022/07/06 02:41:49;;;;;;;7.13;2.60;;;;;;;15.79;49.12;100650.38;10478149;28;20048;-64
2022/07/06 02:46:50;;;;;;;6.85;2.63;;;;;;;15.67;49.47;100650.38;10456094;28;20113;-64
2022/07/06 02:51:52;;;;;;;8.77;2.60;;;;;;;15.61;49.61;100658.72;10479834;28;20098;-64
2022/07/06 02:56:54;;;;;;;5.85;2.45;;;;;;;15.55;49.72;100662.59;10478799;28;20049;-64
2022/07/06 03:01:56;;;;;;;6.00;2.38;;;;;;;15.55;49.51;100664.41;10478919;28;20076;-64
2022/07/06 03:06:59;;;;;;;5.43;2.28;;;;;;;15.60;49.55;100667.56;10474461;28;20056;-64
2022/07/06 03:12:01;;;;;;;6.57;2.30;;;;;;;15.62;49.56;100666.50;10471261;28;20153;-66
2022/07/06 03:17:03;;;;;;;5.63;2.35;;;;;;;15.60;49.33;100678.97;10470166;28;20190;-65
2022/07/06 03:22:05;;;;;;;5.75;2.17;;;;;;;15.59;49.45;100682.53;10470047;28;20503;-64
2022/07/06 03:27:07;;;;;;;6.60;2.08;;;;;;;15.78;48.84;100685.59;10469996;28;20113;-63
2022/07/06 03:32:08;;;;;;;6.55;1.95;;;;;;;15.85;48.98;100700.06;10470138;28;20559;-64
2022/07/06 03:37:10;;;;;;;5.13;2.05;;;;;;;15.80;49.10;100691.59;10470610;28;20053;-64
2022/07/06 03:42:12;;;;;;;7.53;2.60;;;;;;;15.74;48.50;100692.03;10471237;28;20373;-64
2022/07/06 03:47:14;;;;;;;5.55;2.22;;;;;;;15.81;48.50;100703.88;10469067;28;20151;-64
2022/07/06 03:52:15;;;;;;;6.53;2.20;;;;;;;15.84;48.30;100694.88;10469854;28;20044;-64
2022/07/06 03:57:17;;;;;;;6.38;2.42;;;;;;;15.73;48.04;100700.06;10470015;28;20636;-64
2022/07/06 04:02:19;;;;;;;5.75;2.67;;;;;;;15.64;48.16;100698.88;10471386;28;20099;-64
2022/07/06 04:07:21;;;;;;;6.05;2.60;;;;;;;15.79;48.10;100710.19;10469506;28;20467;-64
2022/07/06 04:12:23;;;;;;;8.32;2.50;;;;;;;15.75;47.82;100709.56;10469511;28;20143;-64
2022/07/06 04:22:48;;;;;;;7.47;3.05;;;;;;;15.54;48.29;100721.56;10468802;28;20084;-64
2022/07/06 04:27:50;;;;;;;7.97;2.45;;;;;;;15.51;48.35;100721.75;10433864;28;20110;-64
2022/07/06 04:32:52;;;;;;;10.57;2.80;;;;;;;16.53;46.21;100712.84;10467678;28;20583;-64
2022/07/06 04:37:54;;;;;;;5.57;2.53;;;;;;;17.18;45.34;100716.75;10468254;28;20060;-64
2022/07/06 04:42:56;;;;;;;9.00;2.90;;;;;;;19.95;40.05;100708.44;10468524;28;20390;-64
2022/07/06 04:47:58;;;;;;;6.32;2.90;;;;;;;22.03;36.14;100710.56;10466738;28;20136;-64
2022/07/06 04:52:59;;;;;;;5.72;2.63;;;;;;;23.91;33.05;100697.94;10466325;28;20140;-64
2022/07/06 04:58:01;;;;;;;10.25;3.47;;;;;;;24.83;30.99;100706.88;10433546;28;20608;-65
2022/07/06 05:03:03;;;;;;;9.73;3.30;;;;;;;25.87;29.28;100708.72;10467743;28;20110;-64
2022/07/06 05:08:04;;;;;;;7.95;2.95;;;;;;;26.77;28.09;100704.69;10467967;28;20177;-64
2022/07/06 05:13:06;;;;;;;5.82;3.25;;;;;;;27.79;26.47;100697.03;10466846;28;20485;-64
2022/07/06 05:18:08;;;;;;;10.10;2.83;;;;;;;28.42;25.73;100701.84;10465793;28;20113;-64
2022/07/06 05:23:10;;;;;;;6.53;2.70;;;;;;;28.82;25.00;100712.88;10468091;28;20048;-64
2022/07/06 05:28:12;;;;;;;7.03;2.50;;;;;;;28.64;24.84;100711.63;10466303;28;20051;-65
2022/07/06 05:33:13;;;;;;;5.20;2.25;;;;;;;28.18;24.87;100716.38;10466422;28;20101;-64
2022/07/06 05:38:15;;;;;;;6.32;2.40;;;;;;;25.47;27.57;100733.72;10447724;28;20459;-64
2022/07/06 05:43:17;;;;;;;5.97;2.38;;;;;;;23.34;30.71;100736.72;10466261;28;20497;-65
2022/07/06 05:53:39;;;;;;;6.53;2.30;;;;;;;20.91;34.42;100738.78;10472964;28;20072;-63
2022/07/06 05:58:41;;;;;;;7.20;2.55;;;;;;;20.35;35.40;100749.13;10455872;28;20048;-64
2022/07/06 06:03:43;;;;;;;9.60;2.42;;;;;;;20.05;36.15;100744.66;10474755;28;20971;-64
2022/07/06 06:08:44;;;;;;;7.03;2.40;;;;;;;19.80;36.64;100747.72;10453357;28;20469;-64
2022/07/06 06:13:46;;;;;;;7.97;2.28;;;;;;;19.64;36.74;100739.38;10456733;28;20060;-64
2022/07/06 06:18:48;;;;;;;7.03;2.80;;;;;;;19.43;37.46;100754.44;10472561;28;20145;-64
2022/07/06 06:23:50;;;;;;;6.53;2.33;;;;;;;19.28;38.09;100743.28;10454789;28;20084;-64
2022/07/06 06:28:52;;;;;;;6.55;2.50;;;;;;;19.42;37.98;100745.63;10472885;28;20509;-64
2022/07/06 06:33:54;;;;;;;7.38;2.90;;;;;;;19.62;37.40;100753.72;10471080;28;20179;-64
2022/07/06 06:38:55;;;;;;;8.80;2.95;;;;;;;19.53;37.33;100746.53;10473386;28;20087;-64
2022/07/06 06:43:57;;;;;;;7.68;2.63;;;;;;;19.29;37.50;100755.59;10461749;28;20119;-65
2022/07/06 06:48:59;;;;;;;5.22;2.35;;;;;;;19.55;38.08;100757.84;10452601;28;20049;-64
2022/07/06 06:54:01;;;;;;;8.20;2.83;;;;;;;19.89;37.20;100760.22;10468866;28;20492;-65
2022/07/06 06:59:03;;;;;;;5.97;2.55;;;;;;;19.80;36.56;100765.44;10471767;28;20136;-65
2022/07/06 07:04:20;;;;;;;8.75;2.28;;;;;;;19.81;36.98;100781.25;10468282;28;20283;-65
2022/07/06 07:09:22;;;;;;;7.85;2.40;;;;;;;20.22;36.44;100785.69;10459971;28;20045;-65
2022/07/06 07:14:23;;;;;;;6.78;2.30;;;;;;;22.11;34.00;100769.28;10460542;28;20044;-65
2022/07/06 07:19:25;;;;;;;5.03;2.00;;;;;;;21.89;32.83;100772.25;10438497;28;20468;-65
2022/07/06 07:24:27;;;;;;;8.93;2.30;;;;;;;21.41;33.68;100776.81;10463598;28;20538;-64
2022/07/06 07:29:29;;;;;;;6.70;2.60;;;;;;;23.76;30.31;100769.78;10461947;28;20194;-65
2022/07/06 07:34:31;;;;;;;7.10;2.40;;;;;;;24.96;28.55;100774.13;10464008;28;20048;-65
2022/07/06 07:39:33;;;;;;;7.05;2.30;;;;;;;26.46;26.89;100767.22;10450347;28;20052;-66
2022/07/06 07:44:35;;;;;;;4.85;2.15;;;;;;;25.32;27.03;100762.16;10461694;28;20212;-65
2022/07/06 07:49:36;;;;;;;3.97;1.95;;;;;;;26.77;25.32;100755.69;10467593;28;20088;-65
2022/07/06 07:54:38;;;;;;;3.70;2.00;;;;;;;25.78;25.96;100752.59;10466468;28;20048;-65
2022/07/06 07:59:47;;;;;;;;;;;;;;;23.94;27.18;100756.41;10468771;28;20049;-65
2022/07/06 08:04:49;;;;;;;4.22;2.05;;;;;;;25.29;25.99;100740.19;10466931;28;20011;-65
2022/07/06 08:09:51;;;;;;;5.95;2.00;;;;;;;24.90;26.07;100739.97;10465857;28;20183;-66
2022/07/06 08:14:53;;;;;;;3.80;1.90;;;;;;;22.85;28.83;100761.25;10430892;28;20048;-65
2022/07/06 08:19:55;;;;;;;4.82;2.03;;;;;;;24.15;27.43;100748.88;10467382;28;20139;-66
2022/07/06 08:24:58;;;;;;;5.05;2.13;;;;;;;25.30;26.47;100748.09;10466963;28;20045;-65
2022/07/06 08:30:00;;;;;;;5.05;2.15;;;;;;;26.17;25.88;100753.56;10466613;28;20052;-65
2022/07/06 08:35:02;;;;;;;5.65;1.95;;;;;;;26.96;24.37;100745.34;10464407;28;20041;-65
2022/07/06 08:40:06;;;;;;;4.25;1.50;;;;;;;27.72;22.79;100739.06;10467963;28;20147;-66
2022/07/06 08:45:08;;;;;;;5.28;2.00;;;;;;;25.57;24.85;100745.09;10464386;28;20139;-66
2022/07/06 08:50:10;;;;;;;6.05;1.60;;;;;;;25.62;24.57;100742.75;10465940;28;20667;-67
2022/07/06 08:55:12;;;;;;;5.30;1.70;;;;;;;25.48;24.61;100739.91;10462981;28;20041;-67
2022/07/06 09:00:15;;;;;;;4.50;1.50;;;;;;;25.68;25.04;100741.22;10464012;28;20104;-66
2022/07/06 09:05:17;;;;;;;5.68;1.90;;;;;;;26.23;23.95;100733.25;10445601;28;20144;-66
2022/07/06 09:10:24;;;;;;;6.15;1.50;;;;;;;26.52;23.68;100730.81;10458532;28;20151;-66
2022/07/06 09:15:30;;;;;;;4.82;1.50;;;;;;;24.97;25.92;100733.81;10445471;28;20068;-66
2022/07/06 09:20:32;;;;;;;3.80;1.50;;;;;;;24.82;26.63;100734.59;10462584;28;20103;-66
2022/07/06 09:25:35;;;;;;;4.50;1.58;;;;;;;25.92;25.75;100735.00;10463020;28;20052;-66
2022/07/06 09:30:41;;;;;;;4.40;1.48;;;;;;;26.25;24.94;100734.78;10463336;28;20178;-67
2022/07/06 09:35:45;;;;;;;3.25;1.40;;;;;;;25.89;25.35;100747.72;10445922;28;20059;-66
2022/07/06 09:40:48;;;;;;;5.18;1.75;;;;;;;25.60;26.83;100744.75;10463097;28;20134;-66
2022/07/06 09:45:57;;;;;;;4.38;1.60;;;;;;;25.96;26.22;100741.75;10461812;28;20078;-67
2022/07/06 09:51:06;;;;;;;6.17;1.50;;;;;;;26.09;25.30;100736.66;10462672;28;20076;-66
2022/07/06 09:56:08;;;;;;;6.90;1.67;;;;;;;25.66;25.43;100732.53;10459897;28;20167;-65
2022/07/06 10:01:10;;;;;;;4.07;1.40;;;;;;;25.69;24.88;100726.84;10460497;28;20135;-65
2022/07/06 10:06:12;;;;;;;5.10;1.50;;;;;;;25.36;23.71;100736.75;10464448;28;20056;-66
2022/07/06 10:11:15;;;;;;;3.63;1.45;;;;;;;25.22;24.03;100724.00;10462859;28;20122;-66
2022/07/06 10:16:16;;;;;;;3.85;1.70;;;;;;;25.54;23.67;100721.34;10461013;28;20045;-66
2022/07/06 10:21:19;;;;;;;4.35;1.40;;;;;;;25.26;24.37;100719.97;10463193;28;20087;-66
2022/07/06 10:26:23;;;;;;;5.40;1.58;;;;;;;26.04;24.03;100729.13;10458288;28;20444;-65
2022/07/06 10:31:28;;;;;;;4.25;1.42;;;;;;;26.47;23.08;100720.59;10444397;28;20177;-67
2022/07/06 10:36:30;;;;;;;4.45;1.65;;;;;;;26.97;22.76;100727.38;10469038;28;20065;-67
2022/07/06 10:41:35;;;;;;;4.63;1.40;;;;;;;26.47;23.74;100725.09;10470526;28;20127;-67
2022/07/06 10:46:38;;;;;;;6.78;1.60;;;;;;;25.53;25.28;100738.38;10466642;28;20068;-67
2022/07/06 10:51:41;;;;;;;5.88;1.52;;;;;;;24.29;27.40;100745.59;10467356;28;20055;-67
2022/07/06 10:56:51;;;;;;;4.43;1.60;;;;;;;23.59;28.28;100749.31;10468000;28;20137;-66
2022/07/06 11:02:12;;;;;;;3.88;1.45;;;;;;;23.53;28.50;100747.28;10468284;28;20096;-66
2022/07/06 11:07:15;;;;;;;5.72;1.50;;;;;;;23.31;28.14;100745.03;10469221;28;20056;-66
2022/07/06 11:12:18;;;;;;;3.22;1.52;;;;;;;23.62;27.62;100745.47;10468980;28;20119;-67
2022/07/06 11:17:20;;;;;;;4.15;1.50;;;;;;;23.44;26.71;100745.50;10468356;28;20132;-67
2022/07/06 11:22:24;;;;;;;3.85;1.50;;;;;;;23.07;27.16;100742.13;10467887;28;20511;-66
2022/07/06 11:27:26;;;;;;;3.42;1.60;;;;;;;23.20;27.44;100745.28;10469107;28;20060;-67
2022/07/06 11:32:28;;;;;;;3.80;1.40;;;;;;;23.41;26.01;100727.16;10467936;28;20120;-66
2022/07/06 11:37:30;;;;;;;4.78;1.52;;;;;;;23.72;26.04;100714.16;10460966;28;20103;-67
2022/07/06 11:42:32;;;;;;;3.17;1.33;;;;;;;24.33;26.33;100711.38;10446317;28;20134;-66
2022/07/06 11:47:34;;;;;;;3.80;1.50;;;;;;;24.18;25.78;100724.50;10463901;28;20056;-65
2022/07/06 11:52:36;;;;;;;4.05;1.30;;;;;;;24.09;26.03;100725.44;10465369;28;20214;-65
2022/07/06 11:57:39;;;;;;;3.42;1.30;;;;;;;24.57;26.09;100719.47;10467168;28;20045;-65
2022/07/06 12:02:41;;;;;;;3.25;1.35;;;;;;;23.92;27.23;100716.47;10464680;28;20060;-65
2022/07/06 12:07:43;;;;;;;5.97;1.63;;;;;;;23.72;27.57;100719.50;10465589;28;20048;-66
2022/07/06 12:12:44;;;;;;;4.28;1.45;;;;;;;23.23;28.19;100718.25;10464892;28;20072;-66
2022/07/06 12:17:49;;;;;;;3.80;1.40;;;;;;;23.55;27.35;100723.06;10464515;28;20190;-65
2022/07/06 12:23:01;;;;;;;3.22;1.23;;;;;;;23.70;26.49;100711.66;10464809;28;20535;-66
2022/07/06 12:28:03;;;;;;;3.70;1.30;;;;;;;23.69;26.73;100711.81;10465837;28;20044;-65
2022/07/06 12:33:16;;;;;;;3.70;1.17;;;;;;;23.38;27.23;100708.72;10448450;28;20221;-65
2022/07/06 12:38:27;;;;;;;6.70;1.38;;;;;;;23.24;27.27;100706.59;10465210;28;20147;-67
2022/07/06 12:43:36;;;;;;;5.15;1.30;;;;;;;23.44;26.28;100708.13;10463628;28;20492;-66
2022/07/06 12:48:54;;;;;;;5.50;1.40;;;;;;;23.90;26.45;100701.63;10447320;28;20504;-66
2022/07/06 12:54:12;;;;;;;3.13;1.20;;;;;;;24.16;26.03;100703.25;10463238;28;20553;-66
2022/07/06 12:59:22;;;;;;;4.40;1.42;;;;;;;24.63;25.43;100708.13;10465154;28;20542;-67
2022/07/06 13:04:24;;;;;;;;;;;;;;;24.80;25.45;100697.31;10462539;28;20731;-66
2022/07/06 13:09:26;;;;;;;4.97;1.25;;;;;;;24.98;24.63;100697.19;10463276;28;20001;-66
2022/07/06 13:14:28;;;;;;;4.60;1.30;;;;;;;24.76;25.13;100690.63;10464120;28;20054;-66
2022/07/06 13:19:29;;;;;;;4.43;1.40;;;;;;;24.83;24.97;100690.81;10462686;28;20143;-67
2022/07/06 13:24:31;;;;;;;5.00;1.30;;;;;;;24.94;24.59;100685.97;10464920;28;20482;-67
2022/07/06 13:29:39;;;;;;;5.85;1.67;;;;;;;25.00;25.01;100679.94;10445358;28;20100;-67
2022/07/06 13:34:41;;;;;;;6.60;1.58;;;;;;;24.18;26.25;100674.53;10463965;28;20054;-66
2022/07/06 13:39:43;;;;;;;7.57;1.65;;;;;;;24.27;26.16;100672.72;10463999;28;20164;-66
2022/07/06 13:44:45;;;;;;;3.70;1.52;;;;;;;23.99;26.85;100657.88;10464259;28;20113;-65
2022/07/06 13:49:47;;;;;;;5.03;1.60;;;;;;;23.86;27.25;100662.84;10462966;28;20314;-66
2022/07/06 13:54:49;;;;;;;5.35;1.58;;;;;;;24.07;27.09;100663.31;10460067;28;20045;-67
2022/07/06 13:59:51;;;;;;;4.72;1.88;;;;;;;23.70;27.32;100668.91;10464104;28;20104;-66
2022/07/06 14:04:53;;;;;;;3.42;1.63;;;;;;;23.59;27.96;100658.53;10460486;28;20865;-67
2022/07/06 14:09:54;;;;;;;5.00;1.75;;;;;;;23.76;27.50;100646.09;10451442;28;20049;-66
2022/07/06 14:14:56;;;;;;;4.32;1.80;;;;;;;23.77;27.78;100643.28;10471596;28;20355;-66
2022/07/06 14:19:58;;;;;;;4.25;1.70;;;;;;;23.95;27.55;100640.50;10471642;28;20521;-66
2022/07/06 14:25:00;;;;;;;7.50;1.90;;;;;;;23.92;27.80;100633.63;10470180;28;20044;-66
2022/07/06 14:30:03;;;;;;;5.22;1.90;;;;;;;24.21;27.47;100639.47;10470659;28;20445;-67
2022/07/06 14:35:05;;;;;;;4.65;1.75;;;;;;;24.40;26.91;100630.34;10471083;28;20128;-66
2022/07/06 14:40:07;;;;;;;2.95;1.77;;;;;;;24.64;26.67;100629.53;10469451;28;20091;-66
2022/07/06 14:45:09;;;;;;;6.45;2.00;;;;;;;24.64;26.73;100626.88;10471484;28;20540;-66
2022/07/06 14:50:12;;;;;;;4.35;1.80;;;;;;;24.59;26.28;100631.91;10440111;28;20097;-66
2022/07/06 14:55:13;;;;;;;3.70;1.50;;;;;;;24.36;26.98;100637.03;10465958;28;20478;-66
2022/07/06 15:00:16;;;;;;;4.85;1.70;;;;;;;24.53;26.57;100630.69;10469598;28;20040;-67
2022/07/06 15:05:18;;;;;;;4.05;1.52;;;;;;;24.26;26.89;100628.31;10465993;28;20589;-66
2022/07/06 15:10:19;;;;;;;3.17;1.40;;;;;;;24.17;26.78;100624.75;10469680;28;20113;-66
2022/07/06 15:15:21;;;;;;;4.70;1.40;;;;;;;24.05;26.65;100627.84;10469603;28;20150;-67
2022/07/06 15:20:44;;;;;;;5.78;1.52;;;;;;;23.69;26.86;100618.34;10470623;28;20048;-67
2022/07/06 15:25:46;;;;;;;5.20;1.50;;;;;;;23.41;27.36;100625.69;10469083;28;21018;-66
2022/07/06 15:30:55;;;;;;;;;;;;;;;23.06;27.73;100617.75;10468795;28;20162;-67
2022/07/06 15:35:57;;;;;;;5.22;1.48;;;;;;;23.53;26.93;100605.75;10468052;28;19972;-66
2022/07/06 15:41:01;;;;;;;3.22;1.30;;;;;;;23.63;27.20;100598.47;10467951;28;20715;-66
2022/07/06 15:46:04;;;;;;;5.63;1.55;;;;;;;23.89;26.51;100607.25;10469269;28;20698;-66
2022/07/06 15:51:06;;;;;;;3.95;1.40;;;;;;;23.71;26.90;100584.31;10467764;28;20570;-66
2022/07/06 15:56:08;;;;;;;4.45;1.40;;;;;;;23.61;27.13;100586.25;10468327;28;20451;-66
2022/07/06 16:01:10;;;;;;;7.30;1.15;;;;;;;23.72;26.85;100581.47;10466545;28;20759;-67
2022/07/06 16:06:12;;;;;;;4.22;1.30;;;;;;;24.15;26.49;100578.66;10464387;28;20052;-66
2022/07/06 16:11:14;;;;;;;8.13;1.48;;;;;;;23.81;27.05;100567.16;10463272;28;20075;-66
2022/07/06 16:16:16;;;;;;;4.57;1.48;;;;;;;23.78;26.69;100564.78;10450830;28;20118;-67
2022/07/06 16:21:19;;;;;;;6.95;1.48;;;;;;;23.62;26.86;100559.38;10465456;28;20076;-67
2022/07/06 16:26:21;;;;;;;7.22;1.40;;;;;;;23.52;27.30;100563.16;10463992;28;20648;-67
2022/07/06 16:31:23;;;;;;;6.25;1.40;;;;;;;23.29;27.71;100558.34;10457498;28;20040;-66
2022/07/06 16:36:25;;;;;;;3.30;1.35;;;;;;;23.00;27.60;100557.84;10458645;28;20052;-67
2022/07/06 16:41:27;;;;;;;3.25;1.20;;;;;;;22.64;28.12;100548.16;10463471;28;20127;-67
2022/07/06 16:46:30;;;;;;;7.07;1.40;;;;;;;22.64;28.46;100550.81;10445794;28;20469;-66
2022/07/06 16:51:32;;;;;;;2.47;1.20;;;;;;;22.82;28.14;100542.84;10464021;28;20057;-67
2022/07/06 16:56:34;;;;;;;3.28;1.33;;;;;;;22.62;28.87;100542.16;10456997;28;20479;-66
2022/07/06 17:01:36;;;;;;;4.13;1.30;;;;;;;22.28;29.07;100549.16;10462607;28;20044;-66
2022/07/06 17:06:38;;;;;;;5.95;1.50;;;;;;;22.37;29.22;100543.75;10454545;28;20532;-66
2022/07/06 17:11:40;;;;;;;5.50;1.50;;;;;;;22.56;28.82;100548.09;10455857;28;20080;-65
2022/07/06 17:16:42;;;;;;;3.92;1.45;;;;;;;22.52;28.93;100549.41;10452478;28;20055;-65
2022/07/06 17:21:44;;;;;;;3.95;1.30;;;;;;;22.34;29.21;100553.88;10430346;28;20060;-67
2022/07/06 17:26:52;;;;;;;6.88;1.58;;;;;;;22.27;29.10;100540.31;10456153;28;20082;-67
2022/07/06 17:32:04;;;;;;;6.18;1.65;;;;;;;22.33;29.02;100537.06;10461850;28;20589;-67
2022/07/06 17:37:13;;;;;;;3.92;1.50;;;;;;;22.10;29.34;100543.84;10461230;28;20069;-67
2022/07/06 17:42:14;;;;;;;5.00;1.48;;;;;;;21.88;29.29;100537.06;10459727;28;20129;-67
2022/07/06 17:47:16;;;;;;;3.83;1.48;;;;;;;21.81;29.67;100543.97;10439919;28;20153;-66
2022/07/06 17:52:18;;;;;;;4.82;1.40;;;;;;;22.08;29.61;100542.31;10441515;28;20259;-67
2022/07/06 17:57:20;;;;;;;4.15;1.25;;;;;;;22.10;29.61;100532.34;10459923;28;20137;-67
2022/07/06 18:02:22;;;;;;;3.33;1.25;;;;;;;22.11;29.71;100537.50;10459976;28;20803;-67
2022/07/06 18:07:24;;;;;;;4.20;1.27;;;;;;;22.10;29.88;100535.84;10400768;28;1155898;-67
2022/07/06 18:12:25;;;;;;;4.22;1.63;;;;;;;21.76;29.94;100548.06;10461931;28;20395;-66
2022/07/06 18:17:27;;;;;;;4.45;1.30;;;;;;;21.58;30.64;100545.34;10462735;28;20048;-66
2022/07/06 18:22:29;;;;;;;3.85;1.23;;;;;;;21.47;30.91;100539.38;10460342;28;20429;-66
2022/07/06 18:27:31;;;;;;;3.72;1.38;;;;;;;21.35;31.29;100545.88;10461442;28;20115;-66
2022/07/06 18:32:33;;;;;;;3.72;1.45;;;;;;;21.05;31.51;100537.09;10463066;28;20550;-66
2022/07/06 18:37:34;;;;;;;3.20;1.30;;;;;;;20.90;32.30;100533.22;10462882;28;20110;-67
2022/07/06 18:42:36;;;;;;;4.55;1.30;;;;;;;20.76;32.40;100530.16;10462235;28;20437;-67
2022/07/06 18:47:38;;;;;;;3.15;1.30;;;;;;;20.56;32.85;100518.66;10458750;28;20040;-66
2022/07/06 18:52:39;;;;;;;4.63;1.45;;;;;;;20.49;33.15;100522.88;10459100;28;20457;-66
2022/07/06 18:57:41;;;;;;;5.40;1.40;;;;;;;20.38;33.56;100524.84;10469663;28;20342;-67
2022/07/06 19:02:43;;;;;;;4.43;1.50;;;;;;;20.22;33.81;100520.91;10470741;28;20165;-66
2022/07/06 19:07:45;;;;;;;5.80;1.70;;;;;;;20.12;34.15;100530.69;10460289;28;20424;-66
2022/07/06 19:12:47;;;;;;;4.82;1.40;;;;;;;20.05;34.64;100520.78;10466376;28;20453;-66
2022/07/06 19:17:52;;;;;;;5.55;1.20;;;;;;;19.83;35.52;100523.63;10464782;28;20445;-66
2022/07/06 19:22:55;;;;;;;5.15;1.38;;;;;;;19.73;35.92;100531.56;10469080;28;20048;-67
2022/07/06 19:27:57;;;;;;;2.90;1.30;;;;;;;19.52;36.42;100527.31;10471496;28;20603;-67
2022/07/06 19:32:59;;;;;;;2.92;1.27;;;;;;;19.27;36.87;100532.09;10439760;28;20176;-66
2022/07/06 19:38:01;;;;;;;4.05;1.73;;;;;;;19.10;37.15;100524.72;10467079;28;20363;-67
2022/07/06 19:43:03;;;;;;;5.32;1.50;;;;;;;19.00;37.67;100529.09;10469114;28;20119;-67
2022/07/06 19:48:06;;;;;;;4.18;1.38;;;;;;;18.85;38.30;100550.78;10451766;28;20131;-66
2022/07/06 19:53:08;;;;;;;4.60;1.45;;;;;;;18.73;38.51;100552.63;10470445;28;20094;-66
2022/07/06 19:58:10;;;;;;;3.10;1.33;;;;;;;18.59;39.10;100551.16;10470484;28;20084;-67
2022/07/06 20:03:11;;;;;;;4.18;1.70;;;;;;;18.42;39.81;100550.88;10468962;28;20081;-66
2022/07/06 20:08:14;;;;;;;4.72;1.40;;;;;;;18.27;40.17;100550.31;10468170;28;20058;-67
2022/07/06 20:13:15;;;;;;;6.22;1.30;;;;;;;18.20;39.99;100553.59;10451444;28;20088;-67
2022/07/06 20:18:17;;;;;;;3.25;1.40;;;;;;;18.18;40.22;100553.66;10469089;28;20125;-66
2022/07/06 20:23:20;;;;;;;4.72;1.40;;;;;;;18.19;40.34;100552.75;10466847;28;20425;-67
2022/07/06 20:28:25;;;;;;;5.18;1.50;;;;;;;18.18;40.50;100552.84;10466311;28;20045;-66
2022/07/06 20:33:27;;;;;;;3.63;1.20;;;;;;;18.16;40.61;100552.09;10467381;28;20714;-66
2022/07/06 20:38:30;;;;;;;4.25;1.40;;;;;;;18.16;40.73;100557.41;10466498;28;20106;-67
2022/07/06 20:43:32;;;;;;;4.80;1.75;;;;;;;18.25;40.56;100552.25;10466828;28;20044;-66
2022/07/06 20:48:33;;;;;;;3.33;1.33;;;;;;;18.18;40.54;100558.16;10465936;28;20048;-67
2022/07/06 20:53:35;;;;;;;5.40;1.60;;;;;;;18.12;40.51;100551.53;10460803;28;20146;-66
2022/07/06 20:58:37;;;;;;;3.80;1.30;;;;;;;18.14;40.62;100541.66;10460443;28;20140;-66
2022/07/06 21:04:00;;;;;;;2.97;1.20;;;;;;;18.05;41.00;100545.06;10464492;28;20048;-66
2022/07/06 21:09:02;;;;;;;4.70;1.45;;;;;;;18.01;41.00;100537.47;10457175;28;20052;-67
2022/07/06 21:14:04;;;;;;;3.60;1.40;;;;;;;18.00;40.88;100539.28;10458282;28;20049;-67
2022/07/06 21:19:06;;;;;;;5.03;1.50;;;;;;;17.98;41.18;100537.72;10463376;28;20079;-67
2022/07/06 21:24:08;;;;;;;4.60;1.40;;;;;;;17.90;41.31;100532.19;10463755;28;20784;-67
2022/07/06 21:29:10;;;;;;;6.80;1.50;;;;;;;17.85;41.71;100528.13;10459681;28;20084;-67
2022/07/06 21:34:11;;;;;;;4.32;1.45;;;;;;;17.93;41.60;100519.59;10464317;28;20517;-67
2022/07/06 21:39:13;;;;;;;6.28;1.40;;;;;;;17.88;41.96;100520.91;10463219;28;20155;-67
2022/07/06 21:44:15;;;;;;;3.60;1.40;;;;;;;17.86;42.09;100528.97;10463826;28;20185;-67
2022/07/06 21:49:17;;;;;;;5.20;1.70;;;;;;;17.84;41.91;100521.16;10465196;28;20060;-67
2022/07/06 21:54:19;;;;;;;4.35;1.33;;;;;;;17.81;41.80;100525.88;10463569;28;20094;-66
2022/07/06 21:59:21;;;;;;;3.40;1.38;;;;;;;17.83;41.87;100535.34;10464148;28;20194;-65
2022/07/06 22:04:23;;;;;;;4.05;1.40;;;;;;;17.86;41.94;100526.31;10462715;28;20148;-65
2022/07/06 22:09:27;;;;;;;5.32;1.50;;;;;;;17.88;41.52;100527.03;10464464;28;20056;-65
2022/07/06 22:14:29;;;;;;;4.93;1.38;;;;;;;17.85;41.85;100522.00;10465968;28;20141;-66
2022/07/06 22:19:31;;;;;;;4.40;1.40;;;;;;;17.83;41.71;100518.66;10463609;28;20428;-66
2022/07/06 22:24:32;;;;;;;3.65;1.70;;;;;;;17.95;41.89;100508.88;10464033;28;20129;-66
2022/07/06 22:29:34;;;;;;;4.50;1.30;;;;;;;17.95;41.52;100512.38;10469182;28;20168;-67
2022/07/06 22:34:37;;;;;;;6.13;1.35;;;;;;;17.91;41.81;100518.03;10453593;28;20075;-67
2022/07/06 22:39:39;;;;;;;3.78;1.40;;;;;;;17.92;41.95;100517.03;10472589;28;20449;-67
2022/07/06 22:44:42;;;;;;;5.82;1.50;;;;;;;17.86;41.62;100513.09;10469876;28;20118;-67
2022/07/06 22:49:46;;;;;;;4.70;1.48;;;;;;;17.75;41.90;100506.00;10470983;28;20540;-67
2022/07/06 22:54:48;;;;;;;4.03;1.67;;;;;;;17.73;42.20;100496.50;10471362;28;20391;-67
2022/07/06 22:59:51;;;;;;;3.70;1.60;;;;;;;17.83;42.39;100489.53;10472961;28;20048;-67
2022/07/06 23:04:53;;;;;;;6.07;1.45;;;;;;;17.52;43.12;100490.31;10470668;28;20695;-68
2022/07/06 23:09:55;;;;;;;2.90;1.30;;;;;;;17.50;42.66;100484.31;10470559;28;20040;-67
2022/07/06 23:14:57;;;;;;;4.93;1.45;;;;;;;17.51;42.65;100480.69;10469890;28;20142;-67
2022/07/06 23:19:59;;;;;;;5.25;1.58;;;;;;;17.58;42.78;100481.88;10469350;28;20416;-66